createdAt,value
2022-09-04T00:02:00.159Z,99.90
2022-09-04T00:04:48.014Z,99.90
2022-09-04T00:07:57.352Z,99.90
2022-09-04T00:10:48.503Z,99.90
2022-09-04T00:13:27.677Z,99.90
2022-09-04T00:16:14.283Z,99.90
2022-09-04T00:18:55.105Z,99.90
2022-09-04T00:21:45.695Z,99.90
2022-09-04T00:24:18.661Z,99.90
2022-09-04T00:27:09.925Z,99.90
2022-09-04T00:30:03.151Z,99.90
2022-09-04T00:33:03.850Z,99.90
2022-09-04T00:35:58.673Z,99.90
2022-09-04T00:38:56.878Z,99.90
2022-09-04T00:41:39.043Z,99.90
2022-09-04T00:44:47.720Z,99.90
2022-09-04T00:48:01.661Z,99.90
2022-09-04T00:51:16.155Z,99.90
2022-09-04T01:06:48.260Z,99.90
2022-09-04T01:09:46.271Z,99.90
2022-09-04T01:12:38.783Z,99.90
2022-09-04T01:15:57.592Z,99.90
2022-09-04T01:18:40.845Z,99.90
2022-09-04T01:22:06.407Z,99.90
2022-09-04T01:25:00.578Z,99.90
2022-09-04T01:27:51.432Z,99.90
2022-09-04T01:30:20.191Z,99.90
2022-09-04T01:33:27.521Z,99.90
2022-09-04T01:36:28.028Z,99.90
2022-09-04T01:39:01.722Z,99.90
2022-09-04T01:41:38.357Z,99.90
2022-09-04T01:44:08.408Z,99.90
2022-09-04T01:50:20.598Z,99.90
2022-09-04T01:53:35.467Z,99.90
2022-09-04T01:56:28.725Z,99.90
2022-09-04T01:59:03.969Z,99.90
2022-09-04T02:02:32.622Z,99.90
2022-09-04T02:05:33.866Z,99.90
2022-09-04T02:08:48.654Z,99.90
2022-09-04T02:11:27.914Z,99.90
2022-09-04T02:14:40.555Z,99.90
2022-09-04T02:17:19.247Z,99.90
2022-09-04T02:20:20.986Z,99.90
2022-09-04T02:23:32.862Z,99.90
2022-09-04T02:26:13.375Z,99.90
2022-09-04T02:29:07.083Z,99.90
2022-09-04T02:32:03.817Z,99.90
2022-09-04T02:34:44.592Z,99.90
2022-09-04T02:37:42.216Z,99.90
2022-09-04T02:40:36.314Z,99.90
2022-09-04T02:43:28.557Z,99.90
2022-09-04T02:46:46.664Z,99.90
2022-09-04T02:49:39.916Z,99.90
2022-09-04T02:52:36.296Z,99.90
2022-09-04T03:01:49.193Z,99.90
2022-09-04T03:10:21.436Z,99.90
2022-09-04T03:13:05.343Z,99.90
2022-09-04T03:16:06.447Z,99.90
2022-09-04T03:18:56.510Z,99.90
2022-09-04T03:22:02.538Z,99.90
2022-09-04T03:25:10.257Z,99.90
2022-09-04T03:27:37.758Z,99.90
2022-09-04T03:30:11.042Z,99.90
2022-09-04T03:33:18.550Z,99.90
2022-09-04T03:35:55.525Z,99.90
2022-09-04T03:38:41.280Z,99.90
2022-09-04T03:41:37.776Z,99.90
2022-09-04T03:44:57.737Z,99.90
2022-09-04T03:47:57.861Z,99.90
2022-09-04T03:50:44.807Z,99.90
2022-09-04T03:53:35.058Z,99.90
2022-09-04T03:56:47.023Z,99.90
2022-09-04T04:03:20.883Z,99.90
2022-09-04T04:09:25.747Z,99.90
2022-09-04T04:12:27.394Z,99.90
2022-09-04T04:16:02.004Z,99.90
2022-09-04T04:19:03.380Z,99.90
2022-09-04T04:22:21.415Z,99.90
2022-09-04T04:25:21.471Z,99.90
2022-09-04T04:28:38.111Z,99.90
2022-09-04T04:49:37.281Z,99.90
2022-09-04T04:52:59.204Z,99.90
2022-09-04T05:12:15.231Z,99.90
2022-09-04T05:14:53.891Z,99.90
2022-09-04T05:17:50.630Z,99.90
2022-09-04T05:20:39.537Z,99.90
2022-09-04T05:23:33.126Z,99.90
2022-09-04T05:29:47.702Z,99.90
2022-09-04T05:32:41.778Z,99.90
2022-09-04T05:35:24.614Z,99.90
2022-09-04T05:38:42.380Z,99.90
2022-09-04T05:42:06.350Z,99.90
2022-09-04T05:45:18.461Z,99.90
2022-09-04T05:48:01.565Z,99.90
2022-09-04T05:50:50.397Z,99.90
2022-09-04T05:53:49.160Z,99.90
2022-09-04T05:56:37.030Z,99.90
2022-09-04T05:59:30.989Z,99.90
2022-09-04T06:02:54.183Z,99.90
2022-09-04T06:05:45.176Z,99.90
2022-09-04T06:08:49.535Z,99.90
2022-09-04T06:12:08.978Z,99.90
2022-09-04T06:15:22.004Z,99.90
2022-09-04T06:18:33.726Z,99.90
2022-09-04T06:21:33.342Z,99.90
2022-09-04T06:24:33.235Z,99.90
2022-09-04T06:27:35.482Z,99.90
2022-09-04T06:30:16.315Z,99.90
2022-09-04T06:33:22.212Z,99.90
2022-09-04T06:36:19.800Z,99.90
2022-09-04T06:39:18.451Z,99.90
2022-09-04T06:42:22.997Z,99.90
2022-09-04T06:45:21.207Z,99.90
2022-09-04T06:51:29.520Z,99.90
2022-09-04T07:04:52.009Z,99.90
2022-09-04T07:07:38.504Z,99.90
2022-09-04T07:10:30.166Z,99.90
2022-09-04T07:13:35.695Z,99.90
2022-09-04T07:16:47.062Z,99.90
2022-09-04T07:19:51.258Z,99.90
2022-09-04T07:23:12.006Z,99.90
2022-09-04T07:25:57.396Z,99.90
2022-09-04T07:28:59.818Z,99.90
2022-09-04T07:31:44.588Z,99.90
2022-09-04T07:34:44.895Z,99.90
2022-09-04T07:37:39.962Z,99.90
2022-09-04T07:40:30.837Z,99.90
2022-09-04T07:43:27.174Z,99.90
2022-09-04T07:46:23.052Z,99.90
2022-09-04T07:49:10.508Z,99.90
2022-09-04T07:51:48.033Z,99.90
2022-09-04T07:54:46.532Z,99.90
2022-09-04T08:09:18.664Z,99.90
2022-09-04T08:15:26.534Z,99.90
2022-09-04T08:18:28.291Z,99.90
2022-09-04T08:21:25.873Z,99.90
2022-09-04T08:24:24.702Z,99.90
2022-09-04T08:27:44.886Z,99.90
2022-09-04T08:30:14.891Z,99.90
2022-09-04T08:33:13.065Z,99.90
2022-09-04T08:35:55.674Z,99.90
2022-09-04T08:38:56.562Z,99.90
2022-09-04T08:42:24.756Z,99.90
2022-09-04T08:45:29.556Z,99.90
2022-09-04T08:48:37.388Z,99.90
2022-09-04T08:51:41.684Z,99.90
2022-09-04T08:58:11.781Z,99.90
2022-09-04T09:17:54.040Z,97.40
2022-09-04T09:20:59.186Z,96.00
2022-09-04T09:24:18.106Z,95.10
2022-09-04T09:27:31.901Z,94.70
2022-09-04T09:30:16.046Z,94.00
2022-09-04T09:33:44.630Z,94.50
2022-09-04T09:36:50.869Z,95.10
2022-09-04T09:40:08.552Z,94.40
2022-09-04T09:43:11.356Z,93.60
2022-09-04T09:45:55.322Z,92.00
2022-09-04T09:52:03.158Z,89.90
2022-09-04T09:58:29.384Z,88.50
2022-09-04T10:01:41.840Z,90.50
2022-09-04T10:04:47.960Z,89.70
2022-09-04T10:11:09.633Z,86.00
2022-09-04T10:17:36.985Z,85.20
2022-09-04T10:30:10.716Z,71.70
2022-09-04T10:49:01.044Z,69.30
2022-09-04T10:52:06.562Z,71.50
2022-09-04T10:55:14.824Z,65.80
2022-09-04T10:58:33.541Z,62.20
2022-09-04T11:01:56.080Z,59.70
2022-09-04T11:05:09.061Z,59.50
2022-09-04T11:08:26.540Z,58.70
2022-09-04T11:11:27.361Z,55.40
2022-09-04T11:14:52.412Z,56.90
2022-09-04T11:18:00.622Z,55.70
2022-09-04T11:21:14.148Z,53.80
2022-09-04T11:35:19.492Z,58.60
2022-09-04T11:38:30.227Z,56.70
2022-09-04T11:41:46.367Z,55.50
2022-09-04T11:45:05.734Z,53.10
2022-09-04T11:48:14.068Z,54.70
2022-09-04T11:51:28.861Z,52.70
2022-09-04T11:54:30.215Z,50.60
2022-09-04T11:57:13.934Z,51.70
2022-09-04T12:00:22.346Z,51.50
2022-09-04T12:03:30.633Z,52.40
2022-09-04T12:06:27.358Z,48.80
2022-09-04T12:09:24.468Z,50.00
2022-09-04T12:12:37.905Z,40.70
2022-09-04T12:15:28.822Z,40.50
2022-09-04T12:18:28.236Z,41.10
2022-09-04T12:21:41.436Z,38.00
2022-09-04T12:27:39.713Z,40.00
2022-09-04T12:49:48.638Z,37.00
2022-09-04T13:16:17.329Z,32.50
2022-09-04T13:19:19.138Z,30.90
2022-09-04T13:22:31.970Z,32.70
2022-09-04T13:32:19.965Z,30.50
2022-09-04T13:38:59.486Z,28.00
2022-09-04T13:42:02.598Z,32.30
2022-09-04T13:45:06.628Z,29.90
2022-09-04T13:48:06.357Z,30.90
2022-09-04T13:50:42.311Z,31.10
2022-09-04T13:53:22.878Z,31.50
2022-09-04T13:55:54.582Z,30.30
2022-09-04T13:58:28.169Z,28.40
2022-09-04T14:01:00.417Z,28.60
2022-09-04T14:03:48.629Z,28.50
2022-09-04T14:06:18.748Z,30.00
2022-09-04T14:08:47.724Z,33.30
2022-09-04T14:12:20.062Z,33.50
2022-09-04T14:15:19.477Z,29.70
2022-09-04T14:18:25.108Z,26.60
2022-09-04T14:21:00.992Z,26.90
2022-09-04T14:24:04.926Z,26.10
2022-09-04T14:27:12.248Z,22.70
2022-09-04T14:29:59.679Z,20.40
2022-09-04T14:32:49.493Z,22.30
2022-09-04T14:35:47.205Z,21.40
2022-09-04T14:39:06.614Z,20.70
2022-09-04T14:42:05.553Z,20.90
2022-09-04T14:45:14.839Z,20.70
2022-09-04T14:47:55.060Z,19.10
2022-09-04T14:50:28.590Z,19.20
2022-09-04T14:53:01.096Z,20.80
2022-09-04T14:55:31.415Z,21.60
2022-09-04T14:58:10.981Z,24.60
2022-09-04T15:01:07.216Z,22.50
2022-09-04T15:04:09.155Z,22.10
2022-09-04T15:07:11.238Z,22.50
2022-09-04T15:09:43.494Z,23.80
2022-09-04T15:12:26.840Z,26.10
2022-09-04T15:15:36.840Z,22.90
2022-09-04T15:18:15.883Z,19.70
2022-09-04T15:21:11.382Z,17.50
2022-09-04T15:24:03.017Z,20.00
2022-09-04T15:26:46.701Z,19.30
2022-09-04T15:29:27.295Z,19.10
2022-09-04T15:32:06.541Z,17.10
2022-09-04T15:34:41.376Z,18.10
2022-09-04T15:37:24.670Z,17.10
2022-09-04T15:40:28.592Z,18.30
2022-09-04T15:43:35.222Z,18.30
2022-09-04T15:46:28.320Z,16.50
2022-09-04T15:49:24.570Z,16.80
2022-09-04T15:52:17.601Z,17.50
2022-09-04T15:55:13.880Z,17.00
2022-09-04T15:58:05.474Z,17.70
2022-09-04T16:00:38.856Z,17.50
2022-09-04T16:03:22.014Z,16.80
2022-09-04T16:05:57.211Z,17.60
2022-09-04T16:08:44.469Z,17.80
2022-09-04T16:11:45.222Z,17.70
2022-09-04T16:14:22.537Z,16.00
2022-09-04T16:16:54.755Z,15.70
2022-09-04T16:19:38.482Z,18.40
2022-09-04T16:22:54.320Z,17.10
2022-09-04T16:25:33.669Z,19.00
2022-09-04T16:28:08.490Z,19.50
2022-09-04T16:31:00.231Z,20.60
2022-09-04T16:33:50.288Z,21.80
2022-09-04T16:36:29.155Z,22.10
2022-09-04T16:39:13.467Z,20.00
2022-09-04T16:41:49.486Z,21.90
2022-09-04T16:44:44.566Z,23.90
2022-09-04T16:47:24.644Z,23.40
2022-09-04T16:50:29.420Z,24.90
2022-09-04T16:53:27.564Z,25.60
2022-09-04T16:56:02.638Z,25.20
2022-09-04T16:58:54.752Z,26.80
2022-09-04T17:01:47.765Z,26.30
2022-09-04T17:04:52.524Z,26.30
2022-09-04T17:07:25.963Z,28.40
2022-09-04T17:10:41.989Z,27.80
2022-09-04T17:13:17.962Z,27.90
2022-09-04T17:16:03.517Z,29.10
2022-09-04T17:18:31.501Z,30.00
2022-09-04T17:25:19.619Z,31.40
2022-09-04T17:29:03.745Z,32.30
2022-09-04T17:29:17.150Z,33.30
2022-09-04T17:31:26.036Z,34.70
2022-09-04T17:40:35.593Z,37.50
2022-09-04T17:40:46.673Z,38.70
2022-09-04T17:40:56.844Z,39.80
2022-09-04T17:43:43.589Z,41.60
2022-09-04T17:46:43.333Z,43.10
2022-09-04T17:49:20.481Z,43.90
2022-09-04T17:51:59.494Z,45.90
2022-09-04T17:54:30.083Z,48.40
2022-09-04T17:57:26.121Z,52.20
2022-09-04T18:00:09.087Z,54.60
2022-09-04T18:03:25.519Z,57.70
2022-09-04T18:06:11.193Z,60.80
2022-09-04T18:08:53.789Z,62.40
2022-09-04T18:11:33.025Z,62.60
2022-09-04T18:14:13.073Z,64.00
2022-09-04T18:17:19.392Z,62.20
2022-09-04T18:19:48.531Z,64.00
2022-09-04T18:22:32.027Z,66.50
2022-09-04T18:25:27.554Z,68.50
2022-09-04T18:28:21.839Z,69.70
2022-09-04T18:37:08.476Z,72.30
2022-09-04T18:37:26.549Z,70.60
2022-09-04T18:38:12.245Z,71.70
2022-09-04T18:43:34.638Z,72.00
2022-09-04T18:50:25.657Z,74.60
2022-09-04T18:50:46.368Z,75.70
2022-09-04T18:50:50.303Z,77.10
2022-09-04T18:52:26.720Z,76.50
2022-09-04T18:55:04.481Z,77.70
2022-09-04T18:57:49.020Z,81.50
2022-09-04T19:00:35.187Z,81.60
2022-09-04T19:03:14.449Z,83.90
2022-09-04T19:05:45.461Z,84.30
2022-09-04T19:08:19.782Z,86.40
2022-09-04T19:11:20.750Z,86.60
2022-09-04T19:14:09.954Z,87.90
2022-09-04T19:16:44.932Z,89.10
2022-09-04T19:19:37.953Z,88.60
2022-09-04T19:22:18.654Z,87.90
2022-09-04T19:25:06.859Z,88.10
2022-09-04T19:27:55.004Z,89.10
2022-09-04T19:30:25.190Z,89.00
2022-09-04T19:33:40.306Z,88.90
2022-09-04T19:36:25.166Z,90.00
2022-09-04T19:45:56.309Z,90.10
2022-09-04T19:46:00.063Z,90.80
2022-09-04T19:46:18.860Z,90.90
2022-09-04T19:48:32.177Z,91.70
2022-09-04T19:53:19.541Z,91.60
2022-09-04T19:54:11.771Z,92.10
2022-09-04T19:57:32.974Z,93.20
2022-09-04T20:00:43.207Z,94.60
2022-09-04T20:03:19.033Z,96.60
2022-09-04T20:06:09.291Z,96.10
2022-09-04T20:09:24.077Z,96.10
2022-09-04T20:12:14.845Z,96.90
2022-09-04T20:15:14.368Z,98.90
2022-09-04T20:18:21.769Z,99.20
2022-09-04T20:21:04.146Z,98.40
2022-09-04T20:24:08.178Z,99.90
2022-09-04T20:26:56.569Z,99.10
2022-09-04T20:29:40.361Z,99.60
2022-09-04T20:32:26.634Z,99.90
2022-09-04T20:35:14.132Z,99.90
2022-09-04T20:37:54.007Z,99.90
2022-09-04T20:40:42.212Z,99.90
2022-09-04T20:43:58.637Z,99.90
2022-09-04T20:52:43.709Z,99.90
2022-09-04T20:52:51.807Z,99.90
2022-09-04T20:53:11.104Z,99.90
2022-09-04T20:56:51.970Z,99.90
2022-09-04T21:03:12.165Z,99.90
2022-09-04T21:03:56.967Z,99.90
2022-09-04T21:41:12.959Z,99.90
2022-09-04T21:44:23.631Z,99.90
2022-09-04T21:47:16.867Z,99.90
2022-09-04T21:50:58.944Z,99.90
2022-09-04T22:03:48.298Z,99.90
2022-09-04T22:12:10.386Z,99.90
2022-09-04T22:13:39.418Z,99.90
2022-09-04T22:14:06.460Z,99.90
2022-09-04T22:17:06.902Z,99.90
2022-09-04T22:20:11.088Z,99.90
2022-09-04T22:23:20.037Z,99.90
2022-09-04T22:26:23.308Z,99.90
2022-09-04T22:29:47.327Z,99.90
2022-09-04T22:45:48.087Z,99.90
2022-09-04T22:49:22.439Z,99.90
2022-09-04T22:52:31.076Z,99.90
2022-09-04T22:55:39.413Z,99.90
2022-09-04T22:59:25.800Z,99.90
2022-09-04T23:06:54.443Z,99.90
2022-09-04T23:13:43.181Z,99.90
2022-09-04T23:14:01.711Z,99.90
2022-09-04T23:16:46.188Z,99.90
2022-09-04T23:26:38.918Z,99.90
2022-09-04T23:26:58.781Z,99.90
2022-09-04T23:30:10.275Z,99.90
2022-09-04T23:42:49.790Z,99.90
2022-09-04T23:49:29.255Z,99.90
2022-09-04T23:55:08.367Z,99.90
